Terminal Aerodrome Forecast
Issued by NWS Cleveland, OH

Home | Current Version | Previous Version | Text Only | Print | Product List | Glossary Off
Versions: 1 2 3 4 5 6 7 8 9 10 11 12 13 14 15 16 17 18 19 20 21 22 23 24 25 26

000
FTUS41 KCLE 281140
TAFYNG
TAF
KYNG 281140Z 2812/2912 03008KT 4SM -RA BR OVC025
      TEMPO 2812/2815 2SM -RA BR OVC012
     FM281500 36008KT 4SM BR OVC004
     FM282000 36010KT P6SM OVC012
     FM290200 36006KT P6SM OVC020=

USA.gov is the U.S. government's official web portal to all federal, state and local government web resources and services.